Time;durP1;ratioP1;P1;durP2;ratioP2;P2;SDS_P1;SDS_P2;PMS_P1;PMS_P2;Temp;Humidity;BMP_temperature;BMP_pressure;BME280_temperature;BME280_humidity;BME280_pressure;Samples;Min_cycle;Max_cycle;Signal;HPM_P1;HPM_P2
2021/12/21 00:00:58;;;;;;;8.90;6.15;;;;;;;-2.57;100.00;93073.19;5028845;28;20493;-86
2021/12/21 00:03:27;;;;;;;8.20;6.03;;;;;;;-2.07;100.00;93121.75;5029287;28;20041;-85
2021/12/21 00:05:54;;;;;;;8.13;5.32;;;;;;;-1.54;100.00;93208.59;5028926;28;20053;-85
2021/12/21 00:08:21;;;;;;;9.70;5.70;;;;;;;-1.40;100.00;93207.38;5029261;28;20041;-86
2021/12/21 00:10:48;;;;;;;10.32;6.65;;;;;;;-2.22;100.00;93079.38;5029119;28;20046;-86
2021/12/21 00:13:26;;;;;;;10.15;6.40;;;;;;;-1.80;100.00;93141.16;5029718;28;20460;-83
2021/12/21 00:15:59;;;;;;;9.18;6.90;;;;;;;-1.69;100.00;93193.09;5029883;28;20072;-83
2021/12/21 00:18:35;;;;;;;12.43;6.10;;;;;;;-1.69;100.00;93192.31;5030380;28;20104;-86
2021/12/21 00:21:09;;;;;;;7.70;4.82;;;;;;;-1.66;100.00;93219.75;5029514;28;20053;-83
2021/12/21 00:23:39;;;;;;;6.70;4.53;;;;;;;-1.94;100.00;93220.41;5029384;28;20081;-83
2021/12/21 00:26:08;;;;;;;9.07;4.72;;;;;;;-2.05;100.00;93218.84;5029181;28;20041;-84
2021/12/21 00:28:43;;;;;;;10.07;6.72;;;;;;;-2.17;100.00;93199.78;5028658;28;20048;-84
2021/12/21 00:31:10;;;;;;;7.15;5.43;;;;;;;-2.51;100.00;93165.72;5020923;28;20497;-83
2021/12/21 00:33:41;;;;;;;6.85;5.18;;;;;;;-1.99;100.00;93225.06;5009384;28;20053;-84
2021/12/21 00:36:08;;;;;;;8.27;5.53;;;;;;;-2.56;100.00;93137.63;5009983;28;20046;-84
2021/12/21 00:38:35;;;;;;;7.78;4.97;;;;;;;-2.22;100.00;93202.66;5009862;28;20053;-84
2021/12/21 00:41:02;;;;;;;8.45;5.93;;;;;;;-2.02;100.00;93212.75;5010091;28;20045;-84
2021/12/21 00:43:29;;;;;;;7.55;5.72;;;;;;;-1.69;100.00;93237.63;5009668;28;20060;-85
2021/12/21 00:45:56;;;;;;;9.48;7.03;;;;;;;-1.56;100.00;93242.41;5009372;28;20477;-86
2021/12/21 00:48:28;;;;;;;8.65;6.78;;;;;;;-2.02;100.00;93183.34;5009491;28;20046;-86
2021/12/21 00:50:56;;;;;;;7.28;6.40;;;;;;;-1.82;100.00;93226.13;5009057;28;20065;-82
2021/12/21 00:53:23;;;;;;;9.00;6.32;;;;;;;-1.83;100.00;93241.34;5012643;28;20088;-84
2021/12/21 00:55:50;;;;;;;8.30;5.55;;;;;;;-2.26;100.00;93195.53;5028621;28;20046;-83
2021/12/21 00:58:18;;;;;;;9.20;6.30;;;;;;;-2.22;100.00;93204.41;5011580;28;20046;-83
2021/12/21 01:00:45;;;;;;;11.13;6.47;;;;;;;-2.12;100.00;93217.78;5012703;28;20401;-83
2021/12/21 01:03:14;;;;;;;9.32;6.63;;;;;;;-1.90;100.00;93244.41;5012168;28;20057;-83
2021/12/21 01:05:48;;;;;;;13.98;7.07;;;;;;;-1.94;100.00;93244.81;5030235;28;20073;-83
2021/12/21 01:08:21;;;;;;;10.95;6.88;;;;;;;-2.30;100.00;93217.63;5030854;28;20037;-83
2021/12/21 01:11:02;;;;;;;9.73;6.30;;;;;;;-1.97;100.00;93252.63;5032172;28;20056;-83
2021/12/21 01:13:42;;;;;;;14.65;8.80;;;;;;;-2.15;100.00;93213.00;5031756;28;20107;-83
2021/12/21 01:16:25;;;;;;;15.75;9.55;;;;;;;-1.84;100.00;93233.03;5031821;28;20124;-83
2021/12/21 01:19:14;;;;;;;13.85;9.98;;;;;;;-1.67;100.00;93239.09;5031988;28;20049;-83
2021/12/21 01:21:51;;;;;;;16.55;10.45;;;;;;;-1.85;100.00;93225.59;5032275;28;20124;-83
2021/12/21 01:24:40;;;;;;;17.05;10.50;;;;;;;-2.00;100.00;93233.53;5031409;28;20049;-82
2021/12/21 01:30:07;;;;;;;10.02;6.43;;;;;;;-2.72;100.00;93224.44;5032007;28;20091;-84
2021/12/21 01:32:52;;;;;;;8.30;5.70;;;;;;;-2.88;100.00;93229.16;5031891;28;20042;-83
2021/12/21 01:35:27;;;;;;;8.02;5.47;;;;;;;-2.79;100.00;93260.28;5032166;28;20471;-83
2021/12/21 01:37:59;;;;;;;7.35;5.55;;;;;;;-2.72;100.00;93253.81;5032335;28;20056;-83
2021/12/21 01:43:20;;;;;;;8.02;4.82;;;;;;;-2.81;100.00;93260.41;5029157;28;20053;-83
2021/12/21 01:51:18;;;;;;;5.95;4.43;;;;;;;-2.99;100.00;93271.06;5031266;28;20095;-82
2021/12/21 01:53:46;;;;;;;5.70;4.32;;;;;;;-2.97;100.00;93265.88;5025257;28;21232;-82
2021/12/21 01:56:15;;;;;;;6.15;4.22;;;;;;;-3.02;100.00;93266.28;5014737;28;20051;-82
2021/12/21 01:58:42;;;;;;;6.40;4.30;;;;;;;-2.93;100.00;93261.44;5031459;28;20041;-82
2021/12/21 02:01:11;;;;;;;5.80;4.15;;;;;;;-3.27;100.00;93210.50;5031158;28;20045;-82
2021/12/21 02:03:38;;;;;;;5.53;3.80;;;;;;;-2.88;100.00;93267.66;5031020;28;20045;-82
2021/12/21 02:06:06;;;;;;;6.35;4.18;;;;;;;-3.16;100.00;93229.72;5031294;28;20042;-82
2021/12/21 02:08:33;;;;;;;5.22;3.53;;;;;;;-2.90;100.00;93251.09;5030943;28;20045;-82
2021/12/21 02:11:04;;;;;;;4.75;4.03;;;;;;;-2.89;100.00;93248.47;5031063;28;20505;-82
2021/12/21 02:13:36;;;;;;;5.30;4.28;;;;;;;-2.66;100.00;93265.88;5031045;28;20053;-82
2021/12/21 02:16:03;;;;;;;6.35;4.00;;;;;;;-2.67;100.00;93271.03;5030715;28;20095;-82
2021/12/21 02:18:39;;;;;;;6.55;4.53;;;;;;;-3.15;100.00;93210.41;5030537;28;20045;-82
2021/12/21 02:21:19;;;;;;;5.05;3.65;;;;;;;-2.52;100.00;93289.88;5031027;28;20132;-82
2021/12/21 02:23:48;;;;;;;5.85;4.18;;;;;;;-2.53;100.00;93259.81;5031207;28;20052;-82
2021/12/21 02:29:12;;;;;;;6.63;4.47;;;;;;;-2.50;100.00;93255.31;5031089;28;20048;-83
2021/12/21 02:31:40;;;;;;;5.40;3.95;;;;;;;-2.50;100.00;93220.13;5031235;28;20042;-85
2021/12/21 02:34:08;;;;;;;4.00;3.00;;;;;;;-2.49;100.00;93256.94;5031254;28;20388;-85
2021/12/21 02:36:37;;;;;;;5.03;3.55;;;;;;;-2.67;100.00;93250.91;5031107;28;20115;-84
2021/12/21 02:39:06;;;;;;;5.13;4.32;;;;;;;-2.73;100.00;93214.53;5030890;28;20535;-84
2021/12/21 02:41:34;;;;;;;4.78;3.70;;;;;;;-3.00;100.00;93196.56;5031071;28;20056;-84
2021/12/21 02:44:00;;;;;;;5.47;3.95;;;;;;;-2.65;100.00;93254.13;5030856;28;20045;-84
2021/12/21 02:46:27;;;;;;;4.93;3.42;;;;;;;-2.58;100.00;93272.78;5030166;28;20046;-84
2021/12/21 02:48:54;;;;;;;5.10;3.63;;;;;;;-2.62;100.00;93273.97;5029813;28;20052;-83
2021/12/21 02:51:21;;;;;;;5.90;4.30;;;;;;;-3.09;100.00;93204.88;5029993;28;20041;-84
2021/12/21 02:53:50;;;;;;;5.65;3.80;;;;;;;-2.66;100.00;93275.94;5022476;28;20493;-84
2021/12/21 02:56:17;;;;;;;5.97;4.25;;;;;;;-2.80;100.00;93279.59;5013589;28;20374;-84
2021/12/21 02:58:44;;;;;;;7.82;4.88;;;;;;;-3.37;100.00;93204.63;5030519;28;20396;-84
2021/12/21 03:01:12;;;;;;;6.38;4.53;;;;;;;-2.71;100.00;93278.84;5029759;28;20048;-84
2021/12/21 03:03:40;;;;;;;7.25;5.18;;;;;;;-2.61;100.00;93280.56;5030047;28;20049;-84
2021/12/21 03:06:12;;;;;;;6.90;4.88;;;;;;;-2.68;100.00;93262.72;5029809;28;20049;-85
2021/12/21 03:08:42;;;;;;;7.18;4.88;;;;;;;-3.24;100.00;93167.53;5030640;28;20045;-85
2021/12/21 03:11:15;;;;;;;6.20;4.70;;;;;;;-2.25;100.00;93287.69;5030595;28;20079;-85
2021/12/21 03:16:36;;;;;;;5.80;4.38;;;;;;;-2.12;100.00;93295.00;4994373;28;20099;-85
2021/12/21 03:19:04;;;;;;;7.50;4.97;;;;;;;-2.59;100.00;93241.03;5030217;28;20079;-85
2021/12/21 03:21:32;;;;;;;9.80;5.47;;;;;;;-2.12;100.00;93293.28;5029994;28;20060;-83
2021/12/21 03:23:59;;;;;;;6.95;5.20;;;;;;;-2.36;100.00;93248.34;5030363;28;20068;-84
2021/12/21 03:26:28;;;;;;;7.97;5.60;;;;;;;-1.95;100.00;93289.31;5030195;28;20512;-83
2021/12/21 03:28:55;;;;;;;10.70;5.63;;;;;;;-1.82;100.00;93299.16;5029634;28;20037;-84
2021/12/21 03:31:23;;;;;;;9.82;6.75;;;;;;;-2.49;100.00;93209.16;5029742;28;20390;-83
2021/12/21 03:33:50;;;;;;;9.68;6.25;;;;;;;-1.68;100.00;93295.44;5030139;28;20065;-83
2021/12/21 03:36:19;;;;;;;12.82;8.68;;;;;;;-1.69;100.00;93291.34;5029819;28;20050;-81
2021/12/21 03:38:51;;;;;;;14.98;10.30;;;;;;;-1.52;100.00;93291.59;5029412;28;20045;-81
2021/12/21 03:41:19;;;;;;;13.70;9.07;;;;;;;-1.46;100.00;93295.28;5029732;28;20428;-81
2021/12/21 03:43:48;;;;;;;12.07;9.00;;;;;;;-1.60;100.00;93274.63;5029370;28;21045;-81
2021/12/21 03:46:15;;;;;;;21.40;11.05;;;;;;;-1.39;100.00;93293.84;5029152;28;20042;-81
2021/12/21 03:48:46;;;;;;;22.77;13.43;;;;;;;-1.63;100.00;93245.47;5029281;28;20045;-83
2021/12/21 03:51:14;;;;;;;29.55;16.13;;;;;;;-1.35;100.00;93292.63;5029878;28;20081;-84
2021/12/21 03:53:41;;;;;;;22.30;13.13;;;;;;;-1.37;100.00;93297.00;5023541;28;20050;-83
2021/12/21 03:56:26;;;;;;;19.02;10.10;;;;;;;-1.58;100.00;93272.75;5012171;28;20046;-83
2021/12/21 03:58:54;;;;;;;14.70;8.00;;;;;;;-1.38;100.00;93308.03;5029354;28;20095;-84
2021/12/21 04:01:21;;;;;;;51.85;25.52;;;;;;;-1.86;100.00;93297.03;5028988;28;20055;-86
2021/12/21 04:03:48;;;;;;;26.92;14.95;;;;;;;-2.23;100.00;93248.13;5029310;28;20048;-84
2021/12/21 04:06:15;;;;;;;9.15;5.03;;;;;;;-1.88;98.53;93325.66;5028825;28;20481;-85
2021/12/21 04:08:42;;;;;;;12.57;8.07;;;;;;;-2.87;98.39;93235.78;5029210;28;20042;-85
2021/12/21 04:11:09;;;;;;;7.93;3.92;;;;;;;-2.53;98.70;93315.16;5028916;28;20045;-88
2021/12/21 04:13:38;;;;;;;6.40;4.13;;;;;;;-3.01;100.00;93275.41;5029078;28;20046;-87
2021/12/21 04:16:07;;;;;;;7.55;3.70;;;;;;;-2.88;100.00;93280.22;5029016;28;20045;-86
2021/12/21 04:18:37;;;;;;;6.32;4.15;;;;;;;-2.80;100.00;93263.69;5029237;28;20639;-87
2021/12/21 04:21:06;;;;;;;33.47;15.35;;;;;;;-2.18;100.00;93336.59;5028877;28;20538;-86
2021/12/21 04:23:33;;;;;;;9.60;5.50;;;;;;;-2.75;100.00;93259.91;5028895;28;20045;-86
2021/12/21 04:26:00;;;;;;;7.57;4.05;;;;;;;-2.28;100.00;93334.03;5028945;28;20055;-86
2021/12/21 04:28:27;;;;;;;6.57;4.40;;;;;;;-2.97;100.00;93245.78;5029235;28;20049;-83
2021/12/21 04:30:54;;;;;;;12.73;6.47;;;;;;;-2.90;100.00;93289.63;5029271;28;20045;-84
2021/12/21 04:33:22;;;;;;;11.15;7.80;;;;;;;-3.20;100.00;93278.59;5031766;28;20059;-83
2021/12/21 04:35:49;;;;;;;11.80;7.82;;;;;;;-2.69;100.00;93342.38;5032543;28;20045;-84
2021/12/21 04:38:21;;;;;;;9.48;5.80;;;;;;;-2.63;100.00;93340.28;5032450;28;20045;-83
2021/12/21 04:40:53;;;;;;;10.02;7.47;;;;;;;-2.76;100.00;93335.44;5032929;28;20092;-83
2021/12/21 04:43:20;;;;;;;14.85;8.95;;;;;;;-2.61;100.00;93341.75;5032477;28;20077;-82
2021/12/21 04:45:47;;;;;;;9.60;5.75;;;;;;;-2.82;100.00;93321.66;5032455;28;20477;-82
2021/12/21 04:48:14;;;;;;;6.05;3.97;;;;;;;-2.80;100.00;93354.22;5032759;28;20461;-82
2021/12/21 04:50:43;;;;;;;15.10;8.70;;;;;;;-2.86;100.00;93308.53;5032713;28;20050;-82
2021/12/21 04:53:10;;;;;;;12.65;7.18;;;;;;;-2.50;100.00;93337.56;5030197;28;20046;-83
2021/12/21 04:55:37;;;;;;;6.07;4.05;;;;;;;-3.00;100.00;93321.44;5012513;28;20057;-82
2021/12/21 04:58:05;;;;;;;5.43;3.20;;;;;;;-2.76;100.00;93340.47;5030800;28;20424;-82
2021/12/21 05:00:32;;;;;;;5.10;3.58;;;;;;;-2.92;100.00;93364.34;5032104;28;20619;-82
2021/12/21 05:02:58;;;;;;;9.23;4.60;;;;;;;-2.67;100.00;93359.03;5032087;28;20115;-81
2021/12/21 05:05:25;;;;;;;8.20;5.93;;;;;;;-2.76;100.00;93361.41;5032560;28;20049;-83
2021/12/21 05:08:05;;;;;;;8.45;4.30;;;;;;;-2.89;100.00;93364.09;5032142;28;20041;-81
2021/12/21 05:10:33;;;;;;;7.63;5.55;;;;;;;-3.05;100.00;93349.47;5032311;28;20048;-83
2021/12/21 05:12:59;;;;;;;7.13;4.97;;;;;;;-2.73;100.00;93360.34;5032303;28;20041;-82
2021/12/21 05:15:26;;;;;;;5.22;3.97;;;;;;;-2.72;100.00;93370.25;5032189;28;20049;-81
2021/12/21 05:17:53;;;;;;;6.10;3.97;;;;;;;-2.79;100.00;93359.13;5032366;28;20060;-81
2021/12/21 05:20:20;;;;;;;7.25;4.35;;;;;;;-2.89;100.00;93374.16;5032239;28;20049;-81
2021/12/21 05:22:48;;;;;;;7.75;5.47;;;;;;;-3.59;100.00;93238.19;5031885;28;20045;-81
2021/12/21 05:25:17;;;;;;;8.75;5.25;;;;;;;-2.51;100.00;93379.50;5031883;28;20045;-81
2021/12/21 05:27:44;;;;;;;35.53;14.88;;;;;;;-2.58;100.00;93379.19;5032111;28;20097;-81
2021/12/21 05:30:11;;;;;;;86.53;36.65;;;;;;;-2.50;100.00;93381.09;5031880;28;20056;-81
2021/12/21 05:32:39;;;;;;;46.17;22.85;;;;;;;-3.00;100.00;93327.25;5031809;28;20396;-81
2021/12/21 05:35:06;;;;;;;16.25;8.50;;;;;;;-2.63;100.00;93378.81;5032151;28;20057;-81
2021/12/21 05:37:34;;;;;;;12.98;10.75;;;;;;;-2.53;100.00;93388.09;5032212;28;20064;-81
2021/12/21 05:40:10;;;;;;;42.22;19.80;;;;;;;-2.38;100.00;93386.03;5031901;28;20378;-81
2021/12/21 05:42:38;;;;;;;35.75;20.05;;;;;;;-2.38;100.00;93364.19;5031207;28;20095;-83
2021/12/21 05:45:07;;;;;;;32.72;17.10;;;;;;;-2.16;100.00;93387.59;5031404;28;20037;-83
2021/12/21 05:47:34;;;;;;;40.42;17.98;;;;;;;-2.20;100.00;93402.16;5031329;28;20049;-82
2021/12/21 05:50:01;;;;;;;115.10;43.60;;;;;;;-2.43;100.00;93369.63;5031336;28;20049;-82
2021/12/21 05:52:28;;;;;;;28.60;12.82;;;;;;;-2.28;99.96;93386.88;5031329;28;20048;-82
2021/12/21 05:54:55;;;;;;;14.15;7.05;;;;;;;-2.26;99.60;93407.69;5031637;28;20374;-82
2021/12/21 05:57:22;;;;;;;4.80;3.45;;;;;;;-2.34;98.36;93408.31;5031037;28;20041;-83
2021/12/21 05:59:50;;;;;;;13.25;8.30;;;;;;;-2.34;100.00;93410.03;5031028;28;20095;-83
2021/12/21 06:02:18;;;;;;;23.15;12.68;;;;;;;-2.37;100.00;93415.31;5031237;28;20045;-82
2021/12/21 06:04:45;;;;;;;8.23;5.25;;;;;;;-2.47;99.74;93408.53;5031014;28;20049;-83
2021/12/21 06:07:11;;;;;;;5.85;3.35;;;;;;;-2.84;98.96;93381.31;5031227;28;20045;-82
2021/12/21 06:09:39;;;;;;;9.95;6.50;;;;;;;-2.92;99.60;93376.13;5031400;28;20077;-83
2021/12/21 06:12:13;;;;;;;17.08;10.27;;;;;;;-2.68;100.00;93416.09;5030961;28;20099;-82
2021/12/21 06:23:06;;;;;;;47.88;26.02;;;;;;;-2.36;100.00;93432.00;5028754;28;20087;-81
2021/12/21 06:25:38;;;;;;;29.02;17.90;;;;;;;-2.19;100.00;93431.41;5030651;28;20046;-82
2021/12/21 06:28:07;;;;;;;7.65;4.40;;;;;;;-2.48;100.00;93408.63;5030481;28;20041;-83
2021/12/21 06:30:35;;;;;;;15.88;10.15;;;;;;;-2.19;100.00;93438.16;5030103;28;20049;-84
2021/12/21 06:33:04;;;;;;;14.10;9.82;;;;;;;-2.57;100.00;93357.38;5025849;28;20065;-84
2021/12/21 06:35:32;;;;;;;23.50;14.55;;;;;;;-1.95;100.00;93432.03;5015699;28;20037;-85
2021/12/21 06:37:59;;;;;;;75.35;36.28;;;;;;;-2.00;100.00;93419.03;5019599;28;20045;-86
2021/12/21 06:40:27;;;;;;;77.00;37.13;;;;;;;-2.22;100.00;93393.91;5021484;28;20048;-87
2021/12/21 06:42:55;;;;;;;78.95;35.92;;;;;;;-1.62;100.00;93465.41;5021459;28;20057;-87
2021/12/21 06:45:30;;;;;;;74.70;33.83;;;;;;;-1.69;100.00;93442.44;5019789;28;20124;-84
2021/12/21 06:53:28;;;;;;;55.33;25.65;;;;;;;-1.37;100.00;93469.19;5021040;28;20053;-84
2021/12/21 06:55:55;;;;;;;54.75;25.58;;;;;;;-1.31;100.00;93479.66;5019278;28;20045;-84
2021/12/21 06:58:22;;;;;;;63.17;29.52;;;;;;;-1.33;100.00;93457.09;5020583;28;20038;-84
2021/12/21 07:00:52;;;;;;;49.28;23.77;;;;;;;-1.31;100.00;93464.53;5018382;28;21076;-83
2021/12/21 07:03:20;;;;;;;36.65;18.15;;;;;;;-1.26;100.00;93475.81;5019800;28;20118;-82
2021/12/21 07:05:49;;;;;;;45.45;23.58;;;;;;;-1.10;100.00;93492.16;5020382;28;20053;-83
2021/12/21 07:08:20;;;;;;;30.27;14.60;;;;;;;-1.10;99.41;93497.19;5019313;28;20088;-82
2021/12/21 07:10:54;;;;;;;34.95;17.75;;;;;;;-1.42;98.52;93465.44;5018212;28;20042;-84
2021/12/21 07:18:50;;;;;;;7.05;5.05;;;;;;;-2.02;100.00;93512.31;5021065;28;20046;-83
2021/12/21 07:21:19;;;;;;;8.23;4.85;;;;;;;-1.98;100.00;93510.34;5019432;28;20033;-83
2021/12/21 07:23:46;;;;;;;13.73;6.50;;;;;;;-2.69;100.00;93459.75;5020533;28;20046;-83
2021/12/21 07:26:12;;;;;;;15.30;10.32;;;;;;;-2.78;100.00;93480.59;5020527;28;20053;-83
2021/12/21 07:28:39;;;;;;;17.02;9.77;;;;;;;-2.38;100.00;93509.31;5027936;28;20497;-84
2021/12/21 07:31:06;;;;;;;8.60;5.55;;;;;;;-2.58;100.00;93482.31;5029428;28;20048;-82
2021/12/21 07:33:33;;;;;;;8.50;4.80;;;;;;;-3.02;100.00;93457.28;5029672;28;20046;-82
2021/12/21 07:36:00;;;;;;;9.82;6.05;;;;;;;-3.00;100.00;93494.84;5029830;28;20045;-82
2021/12/21 07:38:30;;;;;;;6.82;4.75;;;;;;;-2.95;100.00;93511.16;5029617;28;20493;-82
2021/12/21 07:40:57;;;;;;;8.05;5.28;;;;;;;-2.77;100.00;93505.63;5029089;28;20136;-82
2021/12/21 07:43:25;;;;;;;9.13;5.85;;;;;;;-2.64;100.00;93507.19;5029476;28;20088;-82
2021/12/21 07:45:52;;;;;;;8.85;5.43;;;;;;;-2.67;100.00;93513.25;5029495;28;20049;-82
2021/12/21 07:48:19;;;;;;;10.45;7.30;;;;;;;-2.82;100.00;93513.53;5029354;28;20045;-81
2021/12/21 07:50:47;;;;;;;6.40;4.03;;;;;;;-2.96;100.00;93519.63;5029441;28;20049;-81
2021/12/21 07:53:15;;;;;;;7.07;4.47;;;;;;;-3.13;100.00;93515.94;5029386;28;20370;-81
2021/12/21 07:55:44;;;;;;;8.98;4.60;;;;;;;-3.09;100.00;93484.59;5029069;28;20045;-81
2021/12/21 07:58:11;;;;;;;20.60;12.63;;;;;;;-2.62;100.00;93521.22;5029139;28;20037;-82
2021/12/21 08:00:38;;;;;;;15.70;9.77;;;;;;;-2.80;100.00;93482.44;5028852;28;20038;-82
2021/12/21 08:03:06;;;;;;;13.65;6.40;;;;;;;-2.86;100.00;93476.97;5029101;28;20489;-81
2021/12/21 08:05:34;;;;;;;6.88;4.90;;;;;;;-2.48;100.00;93534.41;5029094;28;20538;-82
2021/12/21 08:08:11;;;;;;;9.65;5.20;;;;;;;-2.61;100.00;93522.00;5033460;28;20136;-81
2021/12/21 08:10:44;;;;;;;13.05;7.50;;;;;;;-2.31;100.00;93536.38;5026452;28;20042;-81
2021/12/21 08:13:13;;;;;;;6.50;4.05;;;;;;;-2.55;99.93;93544.16;5011392;28;20042;-81
2021/12/21 08:15:41;;;;;;;6.20;4.13;;;;;;;-2.47;100.00;93541.03;5012440;28;20437;-81
2021/12/21 08:18:08;;;;;;;8.23;4.97;;;;;;;-2.37;100.00;93546.94;5013306;28;20053;-81
2021/12/21 08:20:35;;;;;;;6.93;4.22;;;;;;;-2.53;100.00;93516.38;5013388;28;20053;-81
2021/12/21 08:23:02;;;;;;;12.98;6.78;;;;;;;-2.22;99.78;93551.69;5013447;28;20064;-81
2021/12/21 08:25:29;;;;;;;9.63;5.47;;;;;;;-2.18;100.00;93540.44;5013148;28;20042;-81
2021/12/21 08:27:57;;;;;;;26.20;14.32;;;;;;;-2.11;98.99;93545.75;5012838;28;20042;-81
2021/12/21 08:30:26;;;;;;;18.40;10.52;;;;;;;-2.04;100.00;93534.31;5013240;28;20046;-81
2021/12/21 08:32:53;;;;;;;15.45;9.27;;;;;;;-1.82;100.00;93550.97;5012920;28;20046;-81
2021/12/21 08:38:09;;;;;;;8.45;5.43;;;;;;;-1.72;99.61;93562.81;5012886;28;20405;-81
2021/12/21 08:40:39;;;;;;;8.77;4.28;;;;;;;-1.99;98.61;93559.09;5012640;28;20049;-81
2021/12/21 08:43:07;;;;;;;3.28;2.75;;;;;;;-2.32;100.00;93554.91;5013012;28;20052;-81
2021/12/21 08:45:36;;;;;;;6.55;2.80;;;;;;;-2.43;100.00;93554.97;5013322;28;20060;-81
2021/12/21 08:48:05;;;;;;;6.10;3.10;;;;;;;-2.36;100.00;93568.66;5013223;28;20050;-81
2021/12/21 08:50:32;;;;;;;10.10;4.60;;;;;;;-2.25;100.00;93567.00;5012528;28;20054;-80
2021/12/21 08:52:59;;;;;;;11.98;4.63;;;;;;;-2.10;100.00;93570.00;5012474;28;20590;-80
2021/12/21 08:55:26;;;;;;;16.67;5.68;;;;;;;-1.78;100.00;93569.94;5012809;28;20393;-79
2021/12/21 08:57:53;;;;;;;9.27;5.40;;;;;;;-1.91;100.00;93534.88;5012580;28;20048;-80
2021/12/21 09:00:20;;;;;;;9.45;4.25;;;;;;;-1.63;97.73;93588.03;5012602;28;20137;-79
2021/12/21 09:02:50;;;;;;;8.15;3.55;;;;;;;-1.61;95.98;93578.63;5012382;28;20050;-79
2021/12/21 09:05:20;;;;;;;12.32;6.00;;;;;;;-1.51;98.23;93571.13;5012141;28;20046;-80
2021/12/21 09:07:48;;;;;;;5.07;3.00;;;;;;;-1.89;95.38;93567.50;5012340;28;20413;-79
2021/12/21 09:10:20;;;;;;;7.78;4.82;;;;;;;-1.77;97.79;93553.91;5012368;28;20050;-79
2021/12/21 09:12:49;;;;;;;9.35;4.10;;;;;;;-1.61;96.35;93588.69;5012418;28;20401;-79
2021/12/21 09:15:17;;;;;;;6.05;4.10;;;;;;;-1.73;98.27;93576.34;5011957;28;20092;-79
2021/12/21 09:17:45;;;;;;;12.77;6.97;;;;;;;-1.52;98.12;93581.31;5011379;28;20050;-79
2021/12/21 09:20:19;;;;;;;98.90;50.17;;;;;;;-1.50;98.46;93560.13;5012402;28;20375;-79
2021/12/21 09:22:46;;;;;;;11.27;6.05;;;;;;;-1.31;96.66;93583.00;5012096;28;20034;-79
2021/12/21 09:25:13;;;;;;;14.50;7.55;;;;;;;-1.13;97.86;93573.88;5012056;28;20037;-79
2021/12/21 09:27:41;;;;;;;9.25;4.63;;;;;;;-1.40;95.84;93570.22;5011960;28;20076;-79
2021/12/21 09:30:11;;;;;;;10.88;4.90;;;;;;;-1.29;95.66;93566.00;5012271;28;20053;-81
2021/12/21 09:32:37;;;;;;;7.55;4.50;;;;;;;-1.63;96.28;93547.72;5012169;28;20096;-80
2021/12/21 09:35:06;;;;;;;6.43;3.67;;;;;;;-1.55;95.11;93579.84;5011870;28;20046;-79
2021/12/21 09:37:34;;;;;;;6.45;3.17;;;;;;;-1.56;93.24;93582.50;5011807;28;20054;-79
2021/12/21 09:40:01;;;;;;;8.63;3.78;;;;;;;-1.65;93.07;93568.94;5011734;28;20489;-79
2021/12/21 09:42:30;;;;;;;8.18;3.42;;;;;;;-1.52;93.46;93577.06;5012018;28;20045;-80
2021/12/21 09:44:59;;;;;;;4.40;2.40;;;;;;;-1.75;91.51;93559.59;5011767;28;20050;-80
2021/12/21 09:47:27;;;;;;;3.50;2.42;;;;;;;-1.57;91.52;93585.94;5011908;28;20056;-81
2021/12/21 09:49:55;;;;;;;6.20;3.75;;;;;;;-1.59;89.28;93590.31;5011735;28;20137;-81
2021/12/21 09:52:24;;;;;;;6.63;3.33;;;;;;;-1.74;87.71;93545.28;5011322;28;20057;-81
2021/12/21 09:54:52;;;;;;;4.85;2.80;;;;;;;-1.66;88.62;93537.88;5011537;28;20080;-80
2021/12/21 09:57:21;;;;;;;10.10;3.85;;;;;;;-1.28;88.69;93572.63;5011539;28;20109;-81
2021/12/21 09:59:50;;;;;;;16.77;6.50;;;;;;;-1.18;89.25;93562.56;5011659;28;20042;-82
2021/12/21 10:02:19;;;;;;;11.80;5.38;;;;;;;-1.19;89.42;93566.03;5011085;28;20044;-82
2021/12/21 10:04:47;;;;;;;10.02;4.38;;;;;;;-1.21;90.99;93556.06;5011376;28;20481;-82
2021/12/21 10:07:15;;;;;;;10.13;5.40;;;;;;;-1.11;90.95;93556.91;5011567;28;20498;-82
2021/12/21 10:09:43;;;;;;;6.20;3.95;;;;;;;-1.21;89.18;93559.41;5011104;28;20053;-82
2021/12/21 10:12:14;;;;;;;7.97;4.18;;;;;;;-1.23;87.60;93562.97;5011088;28;20521;-82
2021/12/21 10:14:42;;;;;;;4.43;2.40;;;;;;;-1.45;86.14;93556.41;5011500;28;20230;-82
2021/12/21 10:17:11;;;;;;;3.47;2.35;;;;;;;-1.71;87.28;93562.66;5010896;28;20481;-82
2021/12/21 10:19:46;;;;;;;4.70;2.15;;;;;;;-1.81;86.94;93565.13;5010525;28;20042;-81
2021/12/21 10:22:16;;;;;;;9.00;5.00;;;;;;;-1.52;87.94;93558.66;5010392;28;20132;-81
2021/12/21 10:24:48;;;;;;;8.20;4.50;;;;;;;-1.38;87.98;93555.75;5011229;28;20133;-81
2021/12/21 10:27:19;;;;;;;7.55;3.42;;;;;;;-1.28;85.53;93560.84;5010676;28;20056;-80
2021/12/21 10:29:47;;;;;;;12.73;5.78;;;;;;;-1.12;86.89;93551.97;5009809;28;20560;-80
2021/12/21 10:32:23;;;;;;;7.03;3.40;;;;;;;-1.26;85.08;93553.13;5011035;28;20049;-80
2021/12/21 10:34:56;;;;;;;3.63;2.10;;;;;;;-1.21;86.62;93559.41;5010666;28;20096;-80
2021/12/21 10:37:27;;;;;;;3.63;2.13;;;;;;;-1.13;87.51;93565.50;5010575;28;20352;-80
2021/12/21 10:40:16;;;;;;;3.30;2.58;;;;;;;-1.08;85.72;93563.41;5010526;28;20056;-80
2021/12/21 10:42:55;;;;;;;2.92;1.60;;;;;;;-1.46;86.04;93564.88;5010554;28;20050;-80
2021/12/21 10:45:28;;;;;;;9.13;2.80;;;;;;;-1.86;82.15;93568.97;5010709;28;20096;-80
2021/12/21 10:47:55;;;;;;;3.97;2.78;;;;;;;-1.92;82.18;93548.41;5010471;28;20046;-80
2021/12/21 10:50:22;;;;;;;2.88;2.00;;;;;;;-1.53;82.26;93583.03;5010660;28;20072;-80
2021/12/21 10:52:51;;;;;;;4.40;2.75;;;;;;;-1.45;82.11;93584.13;5010661;28;20052;-80
2021/12/21 10:55:26;;;;;;;3.97;2.20;;;;;;;-1.80;78.30;93586.88;5010245;28;20077;-80
2021/12/21 10:58:07;;;;;;;3.47;2.10;;;;;;;-1.82;81.12;93576.13;5010550;28;20085;-80
2021/12/21 11:00:35;;;;;;;6.60;3.10;;;;;;;-1.83;84.67;93571.22;5010310;28;20116;-79
2021/12/21 11:03:02;;;;;;;4.38;2.75;;;;;;;-1.63;84.55;93572.09;5010448;28;20072;-80
2021/12/21 11:05:28;;;;;;;5.05;2.75;;;;;;;-1.91;87.56;93550.00;5010522;28;20137;-80
2021/12/21 11:08:00;;;;;;;3.13;2.33;;;;;;;-1.63;87.40;93562.84;5010264;28;20046;-79
2021/12/21 11:10:32;;;;;;;11.40;4.30;;;;;;;-1.55;86.95;93537.03;5010438;28;20041;-80
2021/12/21 11:13:04;;;;;;;6.78;3.35;;;;;;;-1.30;86.41;93560.16;5010259;28;20045;-79
2021/12/21 11:15:34;;;;;;;7.35;3.10;;;;;;;-1.44;87.28;93526.03;5010305;28;20130;-79
2021/12/21 11:18:04;;;;;;;6.10;2.95;;;;;;;-1.84;87.85;93560.38;5009883;28;20481;-80
2021/12/21 11:20:31;;;;;;;4.43;2.92;;;;;;;-1.65;89.88;93556.34;5010455;28;20052;-80
2021/12/21 11:22:58;;;;;;;5.53;3.35;;;;;;;-1.69;89.96;93534.84;5009548;28;20049;-80
2021/12/21 11:25:25;;;;;;;4.25;2.90;;;;;;;-1.71;88.85;93555.09;5010222;28;20042;-80
2021/12/21 11:27:53;;;;;;;8.27;4.13;;;;;;;-1.78;90.55;93549.78;5010082;28;20054;-80
2021/12/21 11:30:25;;;;;;;7.57;4.38;;;;;;;-1.71;90.03;93527.41;5009716;28;20048;-80
2021/12/21 11:32:54;;;;;;;6.75;3.08;;;;;;;-1.70;92.03;93523.97;5009730;28;20164;-80
2021/12/21 11:38:09;;;;;;;5.00;2.83;;;;;;;-1.46;86.47;93542.22;5009863;28;20619;-81
2021/12/21 11:40:38;;;;;;;8.70;4.50;;;;;;;-1.21;87.51;93559.41;5009493;28;20057;-81
2021/12/21 11:43:15;;;;;;;6.03;3.28;;;;;;;-1.08;84.53;93556.66;5010038;28;20092;-80
2021/12/21 11:45:51;;;;;;;4.78;2.30;;;;;;;-1.04;83.59;93557.19;5009677;28;20429;-81
2021/12/21 11:48:26;;;;;;;5.55;2.75;;;;;;;-1.51;79.67;93553.47;5009765;28;20060;-79
2021/12/21 11:51:04;;;;;;;5.85;3.67;;;;;;;-2.25;80.80;93502.38;5009938;28;20041;-80
2021/12/21 11:53:33;;;;;;;3.38;2.47;;;;;;;-1.80;83.00;93564.22;5009927;28;20415;-82
2021/12/21 11:56:00;;;;;;;4.35;2.60;;;;;;;-1.62;83.41;93566.16;5008498;28;20470;-81
2021/12/21 11:58:29;;;;;;;6.20;3.80;;;;;;;-1.86;86.30;93558.91;5009879;28;20052;-82
2021/12/21 12:01:01;;;;;;;22.65;10.10;;;;;;;-1.97;87.45;93542.13;5009137;28;20494;-82
2021/12/21 12:03:38;;;;;;;3.92;2.30;;;;;;;-2.03;87.22;93530.84;5009554;28;20050;-81
2021/12/21 12:06:07;;;;;;;3.63;2.20;;;;;;;-2.28;89.37;93490.03;5009190;28;20461;-80
2021/12/21 12:08:45;;;;;;;5.93;3.42;;;;;;;-2.15;89.73;93538.47;5009676;28;20037;-80
2021/12/21 12:11:22;;;;;;;8.10;3.30;;;;;;;-1.92;89.63;93555.16;5009546;28;20057;-80
2021/12/21 12:13:50;;;;;;;7.72;4.53;;;;;;;-1.77;91.92;93546.34;5009326;28;20049;-80
2021/12/21 12:16:18;;;;;;;9.15;3.70;;;;;;;-1.81;90.77;93551.78;5009432;28;20045;-81